sensor_id;sensor_type;location;lat;lon;timestamp;pressure;altitude;pressure_sealevel;temperature
71897;BMP280;59767;51.344;12.362;2022-10-31T00:00:01;162321.25;;;14.24
71897;BMP280;59767;51.344;12.362;2022-10-31T00:03:05;162334.34;;;14.29
71897;BMP280;59767;51.344;12.362;2022-10-31T00:06:09;162326.47;;;14.26
71897;BMP280;59767;51.344;12.362;2022-10-31T00:09:14;162329.13;;;14.27
71897;BMP280;59767;51.344;12.362;2022-10-31T00:12:17;162318.56;;;14.23
71897;BMP280;59767;51.344;12.362;2022-10-31T00:15:21;162313.41;;;14.21
71897;BMP280;59767;51.344;12.362;2022-10-31T00:18:25;162310.75;;;14.20
71897;BMP280;59767;51.344;12.362;2022-10-31T00:21:30;162304.19;;;14.17
71897;BMP280;59767;51.344;12.362;2022-10-31T00:24:34;162302.84;;;14.17
71897;BMP280;59767;51.344;12.362;2022-10-31T00:27:38;162304.19;;;14.17
71897;BMP280;59767;51.344;12.362;2022-10-31T00:30:42;162308.13;;;14.19
71897;BMP280;59767;51.344;12.362;2022-10-31T00:33:46;162295.03;;;14.14
71897;BMP280;59767;51.344;12.362;2022-10-31T00:36:50;162281.94;;;14.09
71897;BMP280;59767;51.344;12.362;2022-10-31T00:39:54;162280.66;;;14.08
71897;BMP280;59767;51.344;12.362;2022-10-31T00:42:58;162281.94;;;14.09
71897;BMP280;59767;51.344;12.362;2022-10-31T00:46:03;162284.53;;;14.10
71897;BMP280;59767;51.344;12.362;2022-10-31T00:49:07;162280.66;;;14.08
71897;BMP280;59767;51.344;12.362;2022-10-31T00:52:11;162271.44;;;14.05
71897;BMP280;59767;51.344;12.362;2022-10-31T00:55:15;162255.72;;;13.99
71897;BMP280;59767;51.344;12.362;2022-10-31T00:58:18;162255.72;;;13.99
71897;BMP280;59767;51.344;12.362;2022-10-31T01:01:23;162263.59;;;14.02
71897;BMP280;59767;51.344;12.362;2022-10-31T01:04:27;162245.22;;;13.95
71897;BMP280;59767;51.344;12.362;2022-10-31T01:07:31;162239.97;;;13.93
71897;BMP280;59767;51.344;12.362;2022-10-31T01:10:35;162230.81;;;13.89
71897;BMP280;59767;51.344;12.362;2022-10-31T01:13:39;162228.19;;;13.88
71897;BMP280;59767;51.344;12.362;2022-10-31T01:16:43;162228.19;;;13.88
71897;BMP280;59767;51.344;12.362;2022-10-31T01:19:47;162225.56;;;13.87
71897;BMP280;59767;51.344;12.362;2022-10-31T01:22:50;162224.25;;;13.87
71897;BMP280;59767;51.344;12.362;2022-10-31T01:26:05;162213.81;;;13.83
71897;BMP280;59767;51.344;12.362;2022-10-31T01:29:10;162203.31;;;13.79
71897;BMP280;59767;51.344;12.362;2022-10-31T01:32:14;162203.31;;;13.79
71897;BMP280;59767;51.344;12.362;2022-10-31T01:35:18;162195.44;;;13.76
71897;BMP280;59767;51.344;12.362;2022-10-31T01:38:22;162190.16;;;13.74
71897;BMP280;59767;51.344;12.362;2022-10-31T01:41:31;162187.59;;;13.73
71897;BMP280;59767;51.344;12.362;2022-10-31T01:47:43;162178.41;;;13.69
71897;BMP280;59767;51.344;12.362;2022-10-31T01:50:51;162169.25;;;13.66
71897;BMP280;59767;51.344;12.362;2022-10-31T01:53:59;162167.97;;;13.65
71897;BMP280;59767;51.344;12.362;2022-10-31T01:57:06;162158.75;;;13.62
71897;BMP280;59767;51.344;12.362;2022-10-31T02:00:13;162153.53;;;13.60
71897;BMP280;59767;51.344;12.362;2022-10-31T02:03:18;162152.19;;;13.59
71897;BMP280;59767;51.344;12.362;2022-10-31T02:09:43;162129.94;;;13.51
71897;BMP280;59767;51.344;12.362;2022-10-31T02:12:51;162119.47;;;13.47
71897;BMP280;59767;51.344;12.362;2022-10-31T02:15:58;162118.19;;;13.46
71897;BMP280;59767;51.344;12.362;2022-10-31T02:19:03;162101.13;;;13.40
71897;BMP280;59767;51.344;12.362;2022-10-31T02:22:17;162093.25;;;13.37
71897;BMP280;59767;51.344;12.362;2022-10-31T02:25:51;162085.44;;;13.34
71897;BMP280;59767;51.344;12.362;2022-10-31T02:29:20;162082.78;;;13.33
71897;BMP280;59767;51.344;12.362;2022-10-31T02:32:46;162078.84;;;13.31
71897;BMP280;59767;51.344;12.362;2022-10-31T02:36:03;162071.00;;;13.28
71897;BMP280;59767;51.344;12.362;2022-10-31T02:39:25;162063.13;;;13.25
71897;BMP280;59767;51.344;12.362;2022-10-31T02:42:46;162055.28;;;13.22
71897;BMP280;59767;51.344;12.362;2022-10-31T02:46:13;162030.38;;;13.13
71897;BMP280;59767;51.344;12.362;2022-10-31T02:49:24;162014.69;;;13.07
71897;BMP280;59767;51.344;12.362;2022-10-31T02:52:33;162004.19;;;13.03
71897;BMP280;59767;51.344;12.362;2022-10-31T02:58:59;162001.59;;;13.02
71897;BMP280;59767;51.344;12.362;2022-10-31T03:02:15;161993.72;;;12.99
71897;BMP280;59767;51.344;12.362;2022-10-31T03:05:32;161977.97;;;12.93
71897;BMP280;59767;51.344;12.362;2022-10-31T03:08:57;161974.06;;;12.91
71897;BMP280;59767;51.344;12.362;2022-10-31T03:12:09;161967.53;;;12.89
71897;BMP280;59767;51.344;12.362;2022-10-31T03:15:28;161954.44;;;12.84
71897;BMP280;59767;51.344;12.362;2022-10-31T03:18:57;161946.56;;;12.81
71897;BMP280;59767;51.344;12.362;2022-10-31T03:22:09;161945.22;;;12.80
71897;BMP280;59767;51.344;12.362;2022-10-31T03:25:14;161941.28;;;12.79
71897;BMP280;59767;51.344;12.362;2022-10-31T03:28:22;161945.22;;;12.80
71897;BMP280;59767;51.344;12.362;2022-10-31T03:31:32;161941.28;;;12.79
71897;BMP280;59767;51.344;12.362;2022-10-31T03:34:39;161933.47;;;12.76
71897;BMP280;59767;51.344;12.362;2022-10-31T03:37:44;161925.59;;;12.73
71897;BMP280;59767;51.344;12.362;2022-10-31T03:40:51;161928.19;;;12.74
71897;BMP280;59767;51.344;12.362;2022-10-31T03:44:00;161922.97;;;12.72
71897;BMP280;59767;51.344;12.362;2022-10-31T03:47:06;161916.44;;;12.69
71897;BMP280;59767;51.344;12.362;2022-10-31T03:50:13;161937.41;;;12.77
71897;BMP280;59767;51.344;12.362;2022-10-31T03:53:25;161924.25;;;12.72
71897;BMP280;59767;51.344;12.362;2022-10-31T03:56:36;161905.97;;;12.65
71897;BMP280;59767;51.344;12.362;2022-10-31T03:59:44;161909.91;;;12.67
71897;BMP280;59767;51.344;12.362;2022-10-31T04:06:10;161896.81;;;12.62
71897;BMP280;59767;51.344;12.362;2022-10-31T04:09:16;161890.25;;;12.59
71897;BMP280;59767;51.344;12.362;2022-10-31T04:12:22;161888.94;;;12.59
71897;BMP280;59767;51.344;12.362;2022-10-31T04:15:28;161887.66;;;12.58
71897;BMP280;59767;51.344;12.362;2022-10-31T04:18:32;161873.22;;;12.53
71897;BMP280;59767;51.344;12.362;2022-10-31T04:21:37;161873.22;;;12.53
71897;BMP280;59767;51.344;12.362;2022-10-31T04:24:41;161873.22;;;12.53
71897;BMP280;59767;51.344;12.362;2022-10-31T04:27:44;161869.34;;;12.51
71897;BMP280;59767;51.344;12.362;2022-10-31T04:30:49;161857.50;;;12.47
71897;BMP280;59767;51.344;12.362;2022-10-31T04:33:53;161849.66;;;12.44
71897;BMP280;59767;51.344;12.362;2022-10-31T04:36:57;161843.13;;;12.41
71897;BMP280;59767;51.344;12.362;2022-10-31T04:40:01;161836.53;;;12.39
71897;BMP280;59767;51.344;12.362;2022-10-31T04:43:05;161832.63;;;12.37
71897;BMP280;59767;51.344;12.362;2022-10-31T04:46:10;161820.81;;;12.33
71897;BMP280;59767;51.344;12.362;2022-10-31T04:49:14;161811.69;;;12.29
71897;BMP280;59767;51.344;12.362;2022-10-31T04:52:18;161797.31;;;12.24
71897;BMP280;59767;51.344;12.362;2022-10-31T04:55:22;161788.13;;;12.20
71897;BMP280;59767;51.344;12.362;2022-10-31T04:58:26;161778.97;;;12.17
71897;BMP280;59767;51.344;12.362;2022-10-31T05:01:31;161765.81;;;12.12
71897;BMP280;59767;51.344;12.362;2022-10-31T05:04:35;161771.09;;;12.14
71897;BMP280;59767;51.344;12.362;2022-10-31T05:07:41;161763.22;;;12.11
71897;BMP280;59767;51.344;12.362;2022-10-31T05:10:45;161765.81;;;12.12
71897;BMP280;59767;51.344;12.362;2022-10-31T05:13:49;161761.94;;;12.10
71897;BMP280;59767;51.344;12.362;2022-10-31T05:16:53;161758.00;;;12.09
71897;BMP280;59767;51.344;12.362;2022-10-31T05:19:57;161763.22;;;12.11
71897;BMP280;59767;51.344;12.362;2022-10-31T05:23:01;161763.22;;;12.11
71897;BMP280;59767;51.344;12.362;2022-10-31T05:26:05;161767.16;;;12.12
71897;BMP280;59767;51.344;12.362;2022-10-31T05:29:09;161765.81;;;12.12
71897;BMP280;59767;51.344;12.362;2022-10-31T05:32:13;161763.22;;;12.11
71897;BMP280;59767;51.344;12.362;2022-10-31T05:35:26;161761.94;;;12.10
71897;BMP280;59767;51.344;12.362;2022-10-31T05:38:30;161758.00;;;12.09
71897;BMP280;59767;51.344;12.362;2022-10-31T05:41:34;161758.00;;;12.09
71897;BMP280;59767;51.344;12.362;2022-10-31T05:44:38;161758.00;;;12.09
71897;BMP280;59767;51.344;12.362;2022-10-31T05:47:41;161756.72;;;12.08
71897;BMP280;59767;51.344;12.362;2022-10-31T05:50:48;161752.78;;;12.07
71897;BMP280;59767;51.344;12.362;2022-10-31T05:53:52;161747.53;;;12.05
71897;BMP280;59767;51.344;12.362;2022-10-31T05:56:56;161750.13;;;12.06
71897;BMP280;59767;51.344;12.362;2022-10-31T06:00:00;161746.19;;;12.04
71897;BMP280;59767;51.344;12.362;2022-10-31T06:03:06;161738.38;;;12.01
71897;BMP280;59767;51.344;12.362;2022-10-31T06:06:12;161738.38;;;12.01
71897;BMP280;59767;51.344;12.362;2022-10-31T06:09:16;161731.84;;;11.99
71897;BMP280;59767;51.344;12.362;2022-10-31T06:12:20;161729.16;;;11.98
71897;BMP280;59767;51.344;12.362;2022-10-31T06:15:24;161722.69;;;11.95
71897;BMP280;59767;51.344;12.362;2022-10-31T06:18:28;161731.84;;;11.99
71897;BMP280;59767;51.344;12.362;2022-10-31T06:21:32;161747.53;;;12.05
71897;BMP280;59767;51.344;12.362;2022-10-31T06:24:37;161752.78;;;12.07
71897;BMP280;59767;51.344;12.362;2022-10-31T06:27:41;161752.78;;;12.07
71897;BMP280;59767;51.344;12.362;2022-10-31T06:30:45;161759.34;;;12.09
71897;BMP280;59767;51.344;12.362;2022-10-31T06:33:50;161768.47;;;12.13
71897;BMP280;59767;51.344;12.362;2022-10-31T06:36:54;161765.81;;;12.12
71897;BMP280;59767;51.344;12.362;2022-10-31T06:39:58;161768.47;;;12.13
71897;BMP280;59767;51.344;12.362;2022-10-31T06:43:02;161769.81;;;12.13
71897;BMP280;59767;51.344;12.362;2022-10-31T06:46:06;161767.16;;;12.12
71897;BMP280;59767;51.344;12.362;2022-10-31T06:49:10;161771.09;;;12.14
71897;BMP280;59767;51.344;12.362;2022-10-31T06:52:14;161776.34;;;12.16
71897;BMP280;59767;51.344;12.362;2022-10-31T06:55:19;161778.97;;;12.17
71897;BMP280;59767;51.344;12.362;2022-10-31T06:58:31;161784.16;;;12.19
71897;BMP280;59767;51.344;12.362;2022-10-31T07:01:34;161805.13;;;12.27
71897;BMP280;59767;51.344;12.362;2022-10-31T07:04:38;161831.34;;;12.37
71897;BMP280;59767;51.344;12.362;2022-10-31T07:07:43;161833.97;;;12.38
71897;BMP280;59767;51.344;12.362;2022-10-31T07:10:52;161841.78;;;12.41
71897;BMP280;59767;51.344;12.362;2022-10-31T07:13:56;161853.53;;;12.45
71897;BMP280;59767;51.344;12.362;2022-10-31T07:16:59;161854.88;;;12.46
71897;BMP280;59767;51.344;12.362;2022-10-31T07:20:04;161869.34;;;12.51
71897;BMP280;59767;51.344;12.362;2022-10-31T07:23:09;161883.72;;;12.57
71897;BMP280;59767;51.344;12.362;2022-10-31T07:26:14;161905.97;;;12.65
71897;BMP280;59767;51.344;12.362;2022-10-31T07:29:19;161926.94;;;12.73
71897;BMP280;59767;51.344;12.362;2022-10-31T07:32:22;161941.28;;;12.79
71897;BMP280;59767;51.344;12.362;2022-10-31T07:35:28;161957.00;;;12.85
71897;BMP280;59767;51.344;12.362;2022-10-31T07:38:33;161988.50;;;12.97
71897;BMP280;59767;51.344;12.362;2022-10-31T07:41:37;161997.66;;;13.00
71897;BMP280;59767;51.344;12.362;2022-10-31T07:44:41;162017.28;;;13.08
71897;BMP280;59767;51.344;12.362;2022-10-31T07:47:49;162022.56;;;13.10
71897;BMP280;59767;51.344;12.362;2022-10-31T07:50:54;162030.38;;;13.13
71897;BMP280;59767;51.344;12.362;2022-10-31T07:53:58;162061.78;;;13.25
71897;BMP280;59767;51.344;12.362;2022-10-31T07:57:02;162088.03;;;13.35
71897;BMP280;59767;51.344;12.362;2022-10-31T08:00:08;162124.66;;;13.49
71897;BMP280;59767;51.344;12.362;2022-10-31T08:03:15;162157.41;;;13.61
71897;BMP280;59767;51.344;12.362;2022-10-31T08:06:19;162203.31;;;13.79
71897;BMP280;59767;51.344;12.362;2022-10-31T08:09:23;162255.72;;;13.99
71897;BMP280;59767;51.344;12.362;2022-10-31T08:12:27;162293.69;;;14.13
71897;BMP280;59767;51.344;12.362;2022-10-31T08:15:32;162323.84;;;14.25
71897;BMP280;59767;51.344;12.362;2022-10-31T08:18:38;162344.84;;;14.33
71897;BMP280;59767;51.344;12.362;2022-10-31T08:21:42;162359.28;;;14.38
71897;BMP280;59767;51.344;12.362;2022-10-31T08:24:46;162389.38;;;14.50
71897;BMP280;59767;51.344;12.362;2022-10-31T08:27:51;162420.88;;;14.62
71897;BMP280;59767;51.344;12.362;2022-10-31T08:30:57;162440.47;;;14.69
71897;BMP280;59767;51.344;12.362;2022-10-31T08:34:01;162465.41;;;14.79
71897;BMP280;59767;51.344;12.362;2022-10-31T08:37:06;162483.75;;;14.86
71897;BMP280;59767;51.344;12.362;2022-10-31T08:40:10;162524.41;;;15.01
71897;BMP280;59767;51.344;12.362;2022-10-31T08:43:16;162578.13;;;15.22
71897;BMP280;59767;51.344;12.362;2022-10-31T08:46:20;162631.88;;;15.42
71897;BMP280;59767;51.344;12.362;2022-10-31T08:49:24;162681.72;;;15.61
71897;BMP280;59767;51.344;12.362;2022-10-31T08:52:28;162715.78;;;15.74
71897;BMP280;59767;51.344;12.362;2022-10-31T08:55:56;162736.81;;;15.82
71897;BMP280;59767;51.344;12.362;2022-10-31T08:59:00;162740.69;;;15.84
71897;BMP280;59767;51.344;12.362;2022-10-31T09:02:05;162725.03;;;15.78
71897;BMP280;59767;51.344;12.362;2022-10-31T09:05:08;162719.75;;;15.76
71897;BMP280;59767;51.344;12.362;2022-10-31T09:08:13;162726.25;;;15.78
71897;BMP280;59767;51.344;12.362;2022-10-31T09:11:19;162749.91;;;15.87
71897;BMP280;59767;51.344;12.362;2022-10-31T09:14:23;162769.56;;;15.95
71897;BMP280;59767;51.344;12.362;2022-10-31T09:17:27;162801.03;;;16.07
71897;BMP280;59767;51.344;12.362;2022-10-31T09:20:34;162840.38;;;16.22
71897;BMP280;59767;51.344;12.362;2022-10-31T09:23:38;162873.19;;;16.34
71897;BMP280;59767;51.344;12.362;2022-10-31T09:26:42;162912.50;;;16.49
71897;BMP280;59767;51.344;12.362;2022-10-31T09:29:46;162945.31;;;16.62
71897;BMP280;59767;51.344;12.362;2022-10-31T09:32:58;162955.81;;;16.66
71897;BMP280;59767;51.344;12.362;2022-10-31T09:36:02;162970.22;;;16.71
71897;BMP280;59767;51.344;12.362;2022-10-31T09:39:07;162987.25;;;16.78
71897;BMP280;59767;51.344;12.362;2022-10-31T09:52:24;162928.28;;;16.55
71897;BMP280;59767;51.344;12.362;2022-10-31T09:55:41;162947.94;;;16.63
71897;BMP280;59767;51.344;12.362;2022-10-31T09:58:55;162957.09;;;16.66
71897;BMP280;59767;51.344;12.362;2022-10-31T10:02:17;162975.47;;;16.73
71897;BMP280;59767;51.344;12.362;2022-10-31T10:05:45;163010.91;;;16.87
71897;BMP280;59767;51.344;12.362;2022-10-31T10:08:49;163017.47;;;16.89
71897;BMP280;59767;51.344;12.362;2022-10-31T10:12:22;163017.47;;;16.89
71897;BMP280;59767;51.344;12.362;2022-10-31T10:25:40;163134.22;;;17.34
71897;BMP280;59767;51.344;12.362;2022-10-31T10:28:48;163173.63;;;17.49
71897;BMP280;59767;51.344;12.362;2022-10-31T10:31:54;163190.66;;;17.55
71897;BMP280;59767;51.344;12.362;2022-10-31T10:35:20;163165.72;;;17.46
71897;BMP280;59767;51.344;12.362;2022-10-31T10:41:49;163193.28;;;17.56
71897;BMP280;59767;51.344;12.362;2022-10-31T10:45:16;163169.69;;;17.47
71897;BMP280;59767;51.344;12.362;2022-10-31T10:48:46;163186.75;;;17.54
71897;BMP280;59767;51.344;12.362;2022-10-31T10:52:04;163178.81;;;17.51
71897;BMP280;59767;51.344;12.362;2022-10-31T10:55:53;163160.50;;;17.44
71897;BMP280;59767;51.344;12.362;2022-10-31T10:59:01;163177.53;;;17.50
71897;BMP280;59767;51.344;12.362;2022-10-31T11:02:36;163202.47;;;17.60
71897;BMP280;59767;51.344;12.362;2022-10-31T11:05:50;163226.13;;;17.69
71897;BMP280;59767;51.344;12.362;2022-10-31T11:08:54;163228.69;;;17.70
71897;BMP280;59767;51.344;12.362;2022-10-31T11:12:00;163240.53;;;17.74
71897;BMP280;59767;51.344;12.362;2022-10-31T11:15:21;163260.22;;;17.82
71897;BMP280;59767;51.344;12.362;2022-10-31T11:18:29;163262.84;;;17.83
71897;BMP280;59767;51.344;12.362;2022-10-31T11:21:34;163264.13;;;17.83
71897;BMP280;59767;51.344;12.362;2022-10-31T11:24:40;163277.25;;;17.88
71897;BMP280;59767;51.344;12.362;2022-10-31T11:27:47;163289.06;;;17.93
71897;BMP280;59767;51.344;12.362;2022-10-31T11:31:06;163281.22;;;17.90
71897;BMP280;59767;51.344;12.362;2022-10-31T11:34:36;163291.69;;;17.94
71897;BMP280;59767;51.344;12.362;2022-10-31T11:37:43;163295.63;;;17.95
71897;BMP280;59767;51.344;12.362;2022-10-31T11:40:53;163291.69;;;17.94
71897;BMP280;59767;51.344;12.362;2022-10-31T11:44:37;163298.31;;;17.96
71897;BMP280;59767;51.344;12.362;2022-10-31T11:47:36;163289.06;;;17.93
71897;BMP280;59767;51.344;12.362;2022-10-31T11:50:41;163302.19;;;17.98
71897;BMP280;59767;51.344;12.362;2022-10-31T11:53:57;163317.97;;;18.04
71897;BMP280;59767;51.344;12.362;2022-10-31T11:57:22;163328.41;;;18.08
71897;BMP280;59767;51.344;12.362;2022-10-31T12:00:27;163335.03;;;18.10
71897;BMP280;59767;51.344;12.362;2022-10-31T12:03:43;163353.38;;;18.17
71897;BMP280;59767;51.344;12.362;2022-10-31T12:06:53;163321.91;;;18.05
71897;BMP280;59767;51.344;12.362;2022-10-31T12:09:57;163328.41;;;18.08
71897;BMP280;59767;51.344;12.362;2022-10-31T12:13:13;163333.72;;;18.10
71897;BMP280;59767;51.344;12.362;2022-10-31T12:17:47;163333.72;;;18.10
71897;BMP280;59767;51.344;12.362;2022-10-31T12:24:02;163336.38;;;18.11
71897;BMP280;59767;51.344;12.362;2022-10-31T12:33:53;163367.84;;;18.23
71897;BMP280;59767;51.344;12.362;2022-10-31T12:37:19;163388.81;;;18.31
71897;BMP280;59767;51.344;12.362;2022-10-31T12:50:45;163425.56;;;18.45
71897;BMP280;59767;51.344;12.362;2022-10-31T12:57:32;163492.56;;;18.70
71897;BMP280;59767;51.344;12.362;2022-10-31T13:00:40;163467.63;;;18.61
71897;BMP280;59767;51.344;12.362;2022-10-31T13:07:37;163475.47;;;18.64
71897;BMP280;59767;51.344;12.362;2022-10-31T13:11:12;163459.72;;;18.58
71897;BMP280;59767;51.344;12.362;2022-10-31T13:14:33;163457.16;;;18.57
71897;BMP280;59767;51.344;12.362;2022-10-31T13:17:44;163438.72;;;18.50
71897;BMP280;59767;51.344;12.362;2022-10-31T13:20:50;163424.25;;;18.44
71897;BMP280;59767;51.344;12.362;2022-10-31T13:24:00;163430.88;;;18.47
71897;BMP280;59767;51.344;12.362;2022-10-31T13:27:55;163403.28;;;18.36
71897;BMP280;59767;51.344;12.362;2022-10-31T13:30:51;163412.44;;;18.40
71897;BMP280;59767;51.344;12.362;2022-10-31T13:34:00;163392.78;;;18.32
71897;BMP280;59767;51.344;12.362;2022-10-31T13:37:55;163380.97;;;18.28
71897;BMP280;59767;51.344;12.362;2022-10-31T13:40:55;163365.22;;;18.22
71897;BMP280;59767;51.344;12.362;2022-10-31T13:44:01;163386.22;;;18.30
71897;BMP280;59767;51.344;12.362;2022-10-31T13:50:32;163354.69;;;18.18
71897;BMP280;59767;51.344;12.362;2022-10-31T13:53:43;163370.44;;;18.24
71897;BMP280;59767;51.344;12.362;2022-10-31T13:56:49;163370.44;;;18.24
71897;BMP280;59767;51.344;12.362;2022-10-31T13:59:57;163370.44;;;18.24
71897;BMP280;59767;51.344;12.362;2022-10-31T14:03:01;163358.66;;;18.19
71897;BMP280;59767;51.344;12.362;2022-10-31T14:06:08;163359.97;;;18.20
71897;BMP280;59767;51.344;12.362;2022-10-31T14:09:26;163357.38;;;18.19
71897;BMP280;59767;51.344;12.362;2022-10-31T14:12:35;163338.94;;;18.12
71897;BMP280;59767;51.344;12.362;2022-10-31T14:15:50;163333.72;;;18.10
71897;BMP280;59767;51.344;12.362;2022-10-31T14:19:05;163352.06;;;18.17
71897;BMP280;59767;51.344;12.362;2022-10-31T14:22:20;163320.56;;;18.05
71897;BMP280;59767;51.344;12.362;2022-10-31T14:28:35;163335.03;;;18.10
71897;BMP280;59767;51.344;12.362;2022-10-31T14:31:41;163303.47;;;17.98
71897;BMP280;59767;51.344;12.362;2022-10-31T14:34:53;163304.81;;;17.99
71897;BMP280;59767;51.344;12.362;2022-10-31T14:38:08;163307.47;;;18.00
71897;BMP280;59767;51.344;12.362;2022-10-31T14:47:49;163236.63;;;17.73
71897;BMP280;59767;51.344;12.362;2022-10-31T14:50:58;163222.16;;;17.67
71897;BMP280;59767;51.344;12.362;2022-10-31T14:54:05;163199.84;;;17.59
71897;BMP280;59767;51.344;12.362;2022-10-31T14:57:20;163189.31;;;17.55
71897;BMP280;59767;51.344;12.362;2022-10-31T15:00:26;163170.97;;;17.48
71897;BMP280;59767;51.344;12.362;2022-10-31T15:03:37;163157.84;;;17.43
71897;BMP280;59767;51.344;12.362;2022-10-31T15:07:11;163130.28;;;17.32
71897;BMP280;59767;51.344;12.362;2022-10-31T15:10:26;163111.97;;;17.25
71897;BMP280;59767;51.344;12.362;2022-10-31T15:13:30;163090.94;;;17.17
71897;BMP280;59767;51.344;12.362;2022-10-31T15:16:38;163101.41;;;17.21
71897;BMP280;59767;51.344;12.362;2022-10-31T15:19:44;163083.03;;;17.14
71897;BMP280;59767;51.344;12.362;2022-10-31T15:22:49;163068.63;;;17.09
71897;BMP280;59767;51.344;12.362;2022-10-31T15:26:04;163052.91;;;17.03
71897;BMP280;59767;51.344;12.362;2022-10-31T15:29:17;163052.91;;;17.03
71897;BMP280;59767;51.344;12.362;2022-10-31T15:32:27;163045.03;;;17.00
71897;BMP280;59767;51.344;12.362;2022-10-31T15:35:31;163027.97;;;16.93
71897;BMP280;59767;51.344;12.362;2022-10-31T15:38:35;163010.91;;;16.87
71897;BMP280;59767;51.344;12.362;2022-10-31T15:45:01;162945.31;;;16.62
71897;BMP280;59767;51.344;12.362;2022-10-31T15:48:16;162923.00;;;16.53
71897;BMP280;59767;51.344;12.362;2022-10-31T15:51:32;162911.22;;;16.49
71897;BMP280;59767;51.344;12.362;2022-10-31T15:54:44;162904.59;;;16.46
71897;BMP280;59767;51.344;12.362;2022-10-31T15:57:51;162902.06;;;16.45
71897;BMP280;59767;51.344;12.362;2022-10-31T16:01:23;162881.03;;;16.37
71897;BMP280;59767;51.344;12.362;2022-10-31T16:04:28;162871.84;;;16.34
71897;BMP280;59767;51.344;12.362;2022-10-31T16:07:33;162857.44;;;16.28
71897;BMP280;59767;51.344;12.362;2022-10-31T16:10:37;162857.44;;;16.28
71897;BMP280;59767;51.344;12.362;2022-10-31T16:16:58;162831.22;;;16.18
71897;BMP280;59767;51.344;12.362;2022-10-31T16:20:04;162822.03;;;16.15
71897;BMP280;59767;51.344;12.362;2022-10-31T16:23:16;162816.81;;;16.13
71897;BMP280;59767;51.344;12.362;2022-10-31T16:26:21;162798.41;;;16.06
71897;BMP280;59767;51.344;12.362;2022-10-31T16:29:39;162789.22;;;16.02
71897;BMP280;59767;51.344;12.362;2022-10-31T16:32:54;162795.78;;;16.05
71897;BMP280;59767;51.344;12.362;2022-10-31T16:35:59;162789.22;;;16.02
71897;BMP280;59767;51.344;12.362;2022-10-31T16:39:23;162766.94;;;15.94
71897;BMP280;59767;51.344;12.362;2022-10-31T16:42:27;162757.75;;;15.90
71897;BMP280;59767;51.344;12.362;2022-10-31T16:45:32;162756.44;;;15.90
71897;BMP280;59767;51.344;12.362;2022-10-31T16:48:36;162756.44;;;15.90
71897;BMP280;59767;51.344;12.362;2022-10-31T16:51:40;162751.19;;;15.88
71897;BMP280;59767;51.344;12.362;2022-10-31T16:54:44;162740.69;;;15.84
71897;BMP280;59767;51.344;12.362;2022-10-31T16:57:51;162732.88;;;15.81
71897;BMP280;59767;51.344;12.362;2022-10-31T17:00:56;162725.03;;;15.78
71897;BMP280;59767;51.344;12.362;2022-10-31T17:04:01;162723.69;;;15.77
71897;BMP280;59767;51.344;12.362;2022-10-31T17:07:05;162717.06;;;15.75
71897;BMP280;59767;51.344;12.362;2022-10-31T17:10:10;162725.03;;;15.78
71897;BMP280;59767;51.344;12.362;2022-10-31T17:13:20;162707.97;;;15.71
71897;BMP280;59767;51.344;12.362;2022-10-31T17:16:25;162713.13;;;15.73
71897;BMP280;59767;51.344;12.362;2022-10-31T17:19:30;162709.25;;;15.72
71897;BMP280;59767;51.344;12.362;2022-10-31T17:22:33;162693.50;;;15.66
71897;BMP280;59767;51.344;12.362;2022-10-31T17:25:38;162690.88;;;15.65
71897;BMP280;59767;51.344;12.362;2022-10-31T17:28:42;162690.88;;;15.65
71897;BMP280;59767;51.344;12.362;2022-10-31T17:31:46;162662.06;;;15.54
71897;BMP280;59767;51.344;12.362;2022-10-31T17:34:52;162656.78;;;15.52
71897;BMP280;59767;51.344;12.362;2022-10-31T17:37:56;162643.66;;;15.47
71897;BMP280;59767;51.344;12.362;2022-10-31T17:41:04;162631.88;;;15.42
71897;BMP280;59767;51.344;12.362;2022-10-31T17:44:14;162629.25;;;15.41
71897;BMP280;59767;51.344;12.362;2022-10-31T17:47:18;162622.69;;;15.39
71897;BMP280;59767;51.344;12.362;2022-10-31T17:50:24;162620.09;;;15.38
71897;BMP280;59767;51.344;12.362;2022-10-31T17:53:29;162622.69;;;15.39
71897;BMP280;59767;51.344;12.362;2022-10-31T17:56:33;162609.59;;;15.34
71897;BMP280;59767;51.344;12.362;2022-10-31T17:59:38;162596.47;;;15.29
71897;BMP280;59767;51.344;12.362;2022-10-31T18:02:42;162599.09;;;15.30
71897;BMP280;59767;51.344;12.362;2022-10-31T18:05:57;162627.94;;;15.41
71897;BMP280;59767;51.344;12.362;2022-10-31T18:09:05;162629.25;;;15.41
71897;BMP280;59767;51.344;12.362;2022-10-31T18:12:09;162606.97;;;15.33
71897;BMP280;59767;51.344;12.362;2022-10-31T18:15:14;162599.09;;;15.30
71897;BMP280;59767;51.344;12.362;2022-10-31T18:18:19;162582.09;;;15.23
71897;BMP280;59767;51.344;12.362;2022-10-31T18:21:24;162575.53;;;15.21
71897;BMP280;59767;51.344;12.362;2022-10-31T18:24:28;162565.03;;;15.17
71897;BMP280;59767;51.344;12.362;2022-10-31T18:27:32;162549.31;;;15.11
71897;BMP280;59767;51.344;12.362;2022-10-31T18:30:40;162538.78;;;15.07
71897;BMP280;59767;51.344;12.362;2022-10-31T18:33:44;162541.41;;;15.08
71897;BMP280;59767;51.344;12.362;2022-10-31T18:36:49;162541.41;;;15.08
71897;BMP280;59767;51.344;12.362;2022-10-31T18:39:53;162570.25;;;15.19
71897;BMP280;59767;51.344;12.362;2022-10-31T18:42:57;162559.75;;;15.15
71897;BMP280;59767;51.344;12.362;2022-10-31T18:46:03;162546.63;;;15.10
71897;BMP280;59767;51.344;12.362;2022-10-31T18:49:08;162549.31;;;15.11
71897;BMP280;59767;51.344;12.362;2022-10-31T18:52:12;162536.19;;;15.06
71897;BMP280;59767;51.344;12.362;2022-10-31T18:55:16;162528.31;;;15.03
71897;BMP280;59767;51.344;12.362;2022-10-31T18:58:20;162532.25;;;15.04